sensor_id;sensor_type;location;lat;lon;timestamp;P1;durP1;ratioP1;P2;durP2;ratioP2
20034;SDS011;10178;48.034;9.800;2023-05-16T00:01:40;3.05;;;1.90;;
20034;SDS011;10178;48.034;9.800;2023-05-16T00:04:05;2.75;;;1.60;;
20034;SDS011;10178;48.034;9.800;2023-05-16T00:06:31;1.80;;;1.70;;
20034;SDS011;10178;48.034;9.800;2023-05-16T00:08:57;2.88;;;1.40;;
20034;SDS011;10178;48.034;9.800;2023-05-16T00:11:23;1.75;;;1.58;;
20034;SDS011;10178;48.034;9.800;2023-05-16T00:13:49;1.77;;;1.67;;
20034;SDS011;10178;48.034;9.800;2023-05-16T00:16:15;3.13;;;2.00;;
20034;SDS011;10178;48.034;9.800;2023-05-16T00:18:42;1.70;;;1.60;;
20034;SDS011;10178;48.034;9.800;2023-05-16T00:21:09;1.73;;;1.58;;
20034;SDS011;10178;48.034;9.800;2023-05-16T00:23:36;3.03;;;2.58;;
20034;SDS011;10178;48.034;9.800;2023-05-16T00:26:02;3.50;;;2.83;;
20034;SDS011;10178;48.034;9.800;2023-05-16T00:28:28;2.05;;;1.95;;
20034;SDS011;10178;48.034;9.800;2023-05-16T00:30:54;3.72;;;1.88;;
20034;SDS011;10178;48.034;9.800;2023-05-16T00:33:20;3.75;;;3.42;;
20034;SDS011;10178;48.034;9.800;2023-05-16T00:35:45;29.98;;;10.13;;
20034;SDS011;10178;48.034;9.800;2023-05-16T00:38:11;13.68;;;8.40;;
20034;SDS011;10178;48.034;9.800;2023-05-16T00:40:37;2.67;;;2.47;;
20034;SDS011;10178;48.034;9.800;2023-05-16T00:43:02;3.58;;;2.65;;
20034;SDS011;10178;48.034;9.800;2023-05-16T00:45:28;4.20;;;3.03;;
20034;SDS011;10178;48.034;9.800;2023-05-16T00:47:54;3.88;;;2.75;;
20034;SDS011;10178;48.034;9.800;2023-05-16T00:50:19;5.75;;;2.88;;
20034;SDS011;10178;48.034;9.800;2023-05-16T00:52:45;2.50;;;2.30;;
20034;SDS011;10178;48.034;9.800;2023-05-16T00:55:11;3.08;;;2.70;;
20034;SDS011;10178;48.034;9.800;2023-05-16T00:57:37;3.58;;;2.70;;
20034;SDS011;10178;48.034;9.800;2023-05-16T01:00:07;4.25;;;2.58;;
20034;SDS011;10178;48.034;9.800;2023-05-16T01:02:34;3.05;;;2.40;;
20034;SDS011;10178;48.034;9.800;2023-05-16T01:05:01;4.85;;;2.08;;
20034;SDS011;10178;48.034;9.800;2023-05-16T01:07:29;3.15;;;2.80;;
20034;SDS011;10178;48.034;9.800;2023-05-16T01:09:55;3.08;;;2.78;;
20034;SDS011;10178;48.034;9.800;2023-05-16T01:28:42;2.85;;;2.40;;
20034;SDS011;10178;48.034;9.800;2023-05-16T01:31:09;2.08;;;1.98;;
20034;SDS011;10178;48.034;9.800;2023-05-16T01:33:35;2.38;;;2.13;;
20034;SDS011;10178;48.034;9.800;2023-05-16T01:41:35;3.70;;;2.15;;
20034;SDS011;10178;48.034;9.800;2023-05-16T01:44:29;2.67;;;2.22;;
20034;SDS011;10178;48.034;9.800;2023-05-16T01:46:56;2.45;;;2.25;;
20034;SDS011;10178;48.034;9.800;2023-05-16T01:49:38;2.20;;;2.00;;
20034;SDS011;10178;48.034;9.800;2023-05-16T01:52:10;2.42;;;2.22;;
20034;SDS011;10178;48.034;9.800;2023-05-16T01:54:42;2.38;;;2.17;;
20034;SDS011;10178;48.034;9.800;2023-05-16T01:57:09;2.20;;;2.00;;
20034;SDS011;10178;48.034;9.800;2023-05-16T01:59:36;2.40;;;2.20;;
20034;SDS011;10178;48.034;9.800;2023-05-16T02:02:03;2.10;;;1.92;;
20034;SDS011;10178;48.034;9.800;2023-05-16T02:04:29;2.58;;;2.38;;
20034;SDS011;10178;48.034;9.800;2023-05-16T02:06:55;2.97;;;2.00;;
20034;SDS011;10178;48.034;9.800;2023-05-16T02:09:21;2.20;;;2.03;;
20034;SDS011;10178;48.034;9.800;2023-05-16T02:11:47;2.10;;;2.00;;
20034;SDS011;10178;48.034;9.800;2023-05-16T02:14:12;2.00;;;1.90;;
20034;SDS011;10178;48.034;9.800;2023-05-16T02:16:38;2.15;;;1.95;;
20034;SDS011;10178;48.034;9.800;2023-05-16T02:19:04;2.10;;;1.90;;
20034;SDS011;10178;48.034;9.800;2023-05-16T02:21:30;1.95;;;1.85;;
20034;SDS011;10178;48.034;9.800;2023-05-16T02:23:55;4.35;;;2.75;;
20034;SDS011;10178;48.034;9.800;2023-05-16T02:26:21;5.07;;;3.40;;
20034;SDS011;10178;48.034;9.800;2023-05-16T02:28:46;2.22;;;2.10;;
20034;SDS011;10178;48.034;9.800;2023-05-16T02:31:27;3.42;;;2.00;;
20034;SDS011;10178;48.034;9.800;2023-05-16T02:33:55;2.53;;;2.30;;
20034;SDS011;10178;48.034;9.800;2023-05-16T02:36:21;2.95;;;2.30;;
20034;SDS011;10178;48.034;9.800;2023-05-16T02:38:46;3.60;;;2.30;;
20034;SDS011;10178;48.034;9.800;2023-05-16T02:41:12;2.78;;;2.20;;
20034;SDS011;10178;48.034;9.800;2023-05-16T02:43:38;2.53;;;2.10;;
20034;SDS011;10178;48.034;9.800;2023-05-16T02:46:04;2.25;;;1.95;;
20034;SDS011;10178;48.034;9.800;2023-05-16T02:48:43;2.45;;;2.20;;
20034;SDS011;10178;48.034;9.800;2023-05-16T02:51:09;2.10;;;1.90;;
20034;SDS011;10178;48.034;9.800;2023-05-16T02:53:34;2.42;;;2.22;;
20034;SDS011;10178;48.034;9.800;2023-05-16T02:56:00;2.72;;;2.13;;
20034;SDS011;10178;48.034;9.800;2023-05-16T02:58:26;2.45;;;2.00;;
20034;SDS011;10178;48.034;9.800;2023-05-16T03:00:51;1.92;;;1.75;;
20034;SDS011;10178;48.034;9.800;2023-05-16T03:03:17;2.35;;;1.88;;
20034;SDS011;10178;48.034;9.800;2023-05-16T03:05:42;1.85;;;1.75;;
20034;SDS011;10178;48.034;9.800;2023-05-16T03:08:08;1.90;;;1.80;;
20034;SDS011;10178;48.034;9.800;2023-05-16T03:10:35;2.13;;;1.90;;
20034;SDS011;10178;48.034;9.800;2023-05-16T03:13:00;1.67;;;1.58;;
20034;SDS011;10178;48.034;9.800;2023-05-16T03:15:26;14.90;;;1.98;;
20034;SDS011;10178;48.034;9.800;2023-05-16T03:17:52;1.70;;;1.60;;
20034;SDS011;10178;48.034;9.800;2023-05-16T03:20:17;1.80;;;1.70;;
20034;SDS011;10178;48.034;9.800;2023-05-16T03:22:43;2.17;;;1.60;;
20034;SDS011;10178;48.034;9.800;2023-05-16T03:25:09;2.10;;;1.90;;
20034;SDS011;10178;48.034;9.800;2023-05-16T03:27:34;3.40;;;1.70;;
20034;SDS011;10178;48.034;9.800;2023-05-16T03:30:00;3.53;;;1.80;;
20034;SDS011;10178;48.034;9.800;2023-05-16T03:32:26;2.08;;;1.88;;
20034;SDS011;10178;48.034;9.800;2023-05-16T03:34:51;2.53;;;2.05;;
20034;SDS011;10178;48.034;9.800;2023-05-16T03:37:17;2.38;;;2.03;;
20034;SDS011;10178;48.034;9.800;2023-05-16T03:39:43;1.70;;;1.60;;
20034;SDS011;10178;48.034;9.800;2023-05-16T03:42:08;1.95;;;1.80;;
20034;SDS011;10178;48.034;9.800;2023-05-16T03:44:34;1.58;;;1.48;;
20034;SDS011;10178;48.034;9.800;2023-05-16T03:46:59;1.90;;;1.80;;
20034;SDS011;10178;48.034;9.800;2023-05-16T03:49:25;3.30;;;1.90;;
20034;SDS011;10178;48.034;9.800;2023-05-16T03:51:54;1.70;;;1.60;;
20034;SDS011;10178;48.034;9.800;2023-05-16T03:54:20;1.73;;;1.63;;
20034;SDS011;10178;48.034;9.800;2023-05-16T03:56:46;1.75;;;1.65;;
20034;SDS011;10178;48.034;9.800;2023-05-16T03:59:11;1.38;;;1.27;;
20034;SDS011;10178;48.034;9.800;2023-05-16T04:01:37;1.60;;;1.50;;
20034;SDS011;10178;48.034;9.800;2023-05-16T04:04:03;1.50;;;1.40;;
20034;SDS011;10178;48.034;9.800;2023-05-16T04:06:28;1.67;;;1.58;;
20034;SDS011;10178;48.034;9.800;2023-05-16T04:08:54;1.52;;;1.42;;
20034;SDS011;10178;48.034;9.800;2023-05-16T04:11:20;1.60;;;1.50;;
20034;SDS011;10178;48.034;9.800;2023-05-16T04:13:45;1.38;;;1.38;;
20034;SDS011;10178;48.034;9.800;2023-05-16T04:16:11;1.60;;;1.23;;
20034;SDS011;10178;48.034;9.800;2023-05-16T04:18:37;1.60;;;1.30;;
20034;SDS011;10178;48.034;9.800;2023-05-16T04:21:02;1.95;;;1.50;;
20034;SDS011;10178;48.034;9.800;2023-05-16T04:23:28;1.50;;;1.40;;
20034;SDS011;10178;48.034;9.800;2023-05-16T04:25:54;3.53;;;1.60;;
20034;SDS011;10178;48.034;9.800;2023-05-16T04:28:21;2.95;;;1.38;;
20034;SDS011;10178;48.034;9.800;2023-05-16T04:30:47;1.58;;;1.42;;
20034;SDS011;10178;48.034;9.800;2023-05-16T04:33:14;1.73;;;1.40;;
20034;SDS011;10178;48.034;9.800;2023-05-16T04:35:40;1.40;;;1.30;;
20034;SDS011;10178;48.034;9.800;2023-05-16T04:38:06;2.00;;;1.65;;
20034;SDS011;10178;48.034;9.800;2023-05-16T04:40:32;1.73;;;1.60;;
20034;SDS011;10178;48.034;9.800;2023-05-16T04:42:59;1.67;;;1.58;;
20034;SDS011;10178;48.034;9.800;2023-05-16T04:45:24;1.60;;;1.50;;
20034;SDS011;10178;48.034;9.800;2023-05-16T04:47:50;1.52;;;1.42;;
20034;SDS011;10178;48.034;9.800;2023-05-16T04:50:16;1.70;;;1.60;;
20034;SDS011;10178;48.034;9.800;2023-05-16T04:52:42;1.55;;;1.45;;
20034;SDS011;10178;48.034;9.800;2023-05-16T04:55:07;1.80;;;1.70;;
20034;SDS011;10178;48.034;9.800;2023-05-16T04:57:34;1.60;;;1.50;;
20034;SDS011;10178;48.034;9.800;2023-05-16T04:59:59;2.42;;;1.80;;
20034;SDS011;10178;48.034;9.800;2023-05-16T05:02:25;1.73;;;1.55;;
20034;SDS011;10178;48.034;9.800;2023-05-16T05:04:51;1.95;;;1.75;;
20034;SDS011;10178;48.034;9.800;2023-05-16T05:07:17;3.63;;;1.70;;
20034;SDS011;10178;48.034;9.800;2023-05-16T05:09:42;1.92;;;1.77;;
20034;SDS011;10178;48.034;9.800;2023-05-16T05:12:08;1.90;;;1.70;;
20034;SDS011;10178;48.034;9.800;2023-05-16T05:14:35;2.63;;;1.67;;
20034;SDS011;10178;48.034;9.800;2023-05-16T05:17:00;1.90;;;1.80;;
20034;SDS011;10178;48.034;9.800;2023-05-16T05:19:26;2.08;;;1.70;;
20034;SDS011;10178;48.034;9.800;2023-05-16T05:21:51;2.05;;;1.85;;
20034;SDS011;10178;48.034;9.800;2023-05-16T05:24:17;2.50;;;2.13;;
20034;SDS011;10178;48.034;9.800;2023-05-16T05:26:43;2.13;;;1.92;;
20034;SDS011;10178;48.034;9.800;2023-05-16T05:29:08;3.88;;;1.70;;
20034;SDS011;10178;48.034;9.800;2023-05-16T05:31:34;2.03;;;1.92;;
20034;SDS011;10178;48.034;9.800;2023-05-16T05:33:59;2.17;;;1.88;;
20034;SDS011;10178;48.034;9.800;2023-05-16T05:36:25;2.08;;;1.88;;
20034;SDS011;10178;48.034;9.800;2023-05-16T05:38:51;1.90;;;1.80;;
20034;SDS011;10178;48.034;9.800;2023-05-16T05:41:17;3.65;;;2.42;;
20034;SDS011;10178;48.034;9.800;2023-05-16T05:43:42;2.33;;;2.13;;
20034;SDS011;10178;48.034;9.800;2023-05-16T05:46:08;2.40;;;2.20;;
20034;SDS011;10178;48.034;9.800;2023-05-16T05:48:33;2.30;;;1.77;;
20034;SDS011;10178;48.034;9.800;2023-05-16T05:50:59;2.28;;;2.00;;
20034;SDS011;10178;48.034;9.800;2023-05-16T05:53:25;2.30;;;2.10;;
20034;SDS011;10178;48.034;9.800;2023-05-16T05:55:51;3.67;;;2.60;;
20034;SDS011;10178;48.034;9.800;2023-05-16T05:58:17;1.90;;;1.80;;
20034;SDS011;10178;48.034;9.800;2023-05-16T06:00:43;4.65;;;2.03;;
20034;SDS011;10178;48.034;9.800;2023-05-16T06:03:09;2.30;;;2.10;;
20034;SDS011;10178;48.034;9.800;2023-05-16T06:05:34;2.47;;;2.28;;
20034;SDS011;10178;48.034;9.800;2023-05-16T06:08:00;2.15;;;2.05;;
20034;SDS011;10178;48.034;9.800;2023-05-16T06:10:25;2.47;;;2.20;;
20034;SDS011;10178;48.034;9.800;2023-05-16T06:12:51;2.45;;;2.25;;
20034;SDS011;10178;48.034;9.800;2023-05-16T06:15:17;2.65;;;2.28;;
20034;SDS011;10178;48.034;9.800;2023-05-16T06:17:42;2.50;;;2.30;;
20034;SDS011;10178;48.034;9.800;2023-05-16T06:20:08;2.70;;;2.50;;
20034;SDS011;10178;48.034;9.800;2023-05-16T06:22:34;2.72;;;2.53;;
20034;SDS011;10178;48.034;9.800;2023-05-16T06:24:59;4.25;;;2.97;;
20034;SDS011;10178;48.034;9.800;2023-05-16T06:27:25;3.17;;;2.38;;
20034;SDS011;10178;48.034;9.800;2023-05-16T06:29:51;3.85;;;3.47;;
20034;SDS011;10178;48.034;9.800;2023-05-16T06:32:17;4.80;;;3.47;;
20034;SDS011;10178;48.034;9.800;2023-05-16T06:34:42;4.47;;;4.07;;
20034;SDS011;10178;48.034;9.800;2023-05-16T06:37:08;5.85;;;4.38;;
20034;SDS011;10178;48.034;9.800;2023-05-16T06:39:33;5.20;;;4.15;;
20034;SDS011;10178;48.034;9.800;2023-05-16T06:41:59;5.20;;;4.50;;
20034;SDS011;10178;48.034;9.800;2023-05-16T06:44:25;5.38;;;4.55;;
20034;SDS011;10178;48.034;9.800;2023-05-16T06:46:51;6.35;;;5.22;;
20034;SDS011;10178;48.034;9.800;2023-05-16T06:49:17;7.00;;;4.65;;
20034;SDS011;10178;48.034;9.800;2023-05-16T06:51:42;12.23;;;5.40;;
20034;SDS011;10178;48.034;9.800;2023-05-16T06:54:08;7.00;;;5.95;;
20034;SDS011;10178;48.034;9.800;2023-05-16T06:56:33;8.05;;;6.00;;
20034;SDS011;10178;48.034;9.800;2023-05-16T06:58:59;8.75;;;6.60;;
20034;SDS011;10178;48.034;9.800;2023-05-16T07:01:25;15.27;;;12.55;;
20034;SDS011;10178;48.034;9.800;2023-05-16T07:03:51;8.63;;;6.13;;
20034;SDS011;10178;48.034;9.800;2023-05-16T07:06:17;8.32;;;6.32;;
20034;SDS011;10178;48.034;9.800;2023-05-16T07:08:42;9.25;;;7.30;;
20034;SDS011;10178;48.034;9.800;2023-05-16T07:11:08;10.05;;;7.40;;
20034;SDS011;10178;48.034;9.800;2023-05-16T07:13:35;9.90;;;7.63;;
20034;SDS011;10178;48.034;9.800;2023-05-16T07:16:01;9.40;;;7.78;;
20034;SDS011;10178;48.034;9.800;2023-05-16T07:18:26;9.18;;;8.07;;
20034;SDS011;10178;48.034;9.800;2023-05-16T07:20:52;9.50;;;8.35;;
20034;SDS011;10178;48.034;9.800;2023-05-16T07:23:18;12.52;;;9.02;;
20034;SDS011;10178;48.034;9.800;2023-05-16T07:25:44;14.90;;;9.75;;
20034;SDS011;10178;48.034;9.800;2023-05-16T07:28:10;11.98;;;8.88;;
20034;SDS011;10178;48.034;9.800;2023-05-16T07:30:35;14.35;;;11.60;;
20034;SDS011;10178;48.034;9.800;2023-05-16T07:33:01;14.45;;;10.50;;
20034;SDS011;10178;48.034;9.800;2023-05-16T07:35:26;19.13;;;15.27;;
20034;SDS011;10178;48.034;9.800;2023-05-16T07:37:52;16.67;;;12.18;;
20034;SDS011;10178;48.034;9.800;2023-05-16T07:40:17;14.20;;;11.00;;
20034;SDS011;10178;48.034;9.800;2023-05-16T07:42:45;14.90;;;12.73;;
20034;SDS011;10178;48.034;9.800;2023-05-16T07:45:10;17.85;;;13.25;;
20034;SDS011;10178;48.034;9.800;2023-05-16T07:47:36;17.85;;;14.20;;
20034;SDS011;10178;48.034;9.800;2023-05-16T07:50:02;19.10;;;12.85;;
20034;SDS011;10178;48.034;9.800;2023-05-16T07:52:27;19.13;;;14.65;;
20034;SDS011;10178;48.034;9.800;2023-05-16T07:54:53;17.80;;;14.18;;
20034;SDS011;10178;48.034;9.800;2023-05-16T07:57:19;18.88;;;14.38;;
20034;SDS011;10178;48.034;9.800;2023-05-16T07:59:44;17.92;;;13.98;;
20034;SDS011;10178;48.034;9.800;2023-05-16T08:02:10;19.67;;;14.60;;
20034;SDS011;10178;48.034;9.800;2023-05-16T08:04:36;19.40;;;14.93;;
20034;SDS011;10178;48.034;9.800;2023-05-16T08:07:02;20.25;;;15.73;;
20034;SDS011;10178;48.034;9.800;2023-05-16T08:09:27;21.48;;;16.23;;
20034;SDS011;10178;48.034;9.800;2023-05-16T08:11:53;20.63;;;15.07;;
20034;SDS011;10178;48.034;9.800;2023-05-16T08:14:18;18.27;;;14.85;;
20034;SDS011;10178;48.034;9.800;2023-05-16T08:16:44;18.52;;;15.60;;
20034;SDS011;10178;48.034;9.800;2023-05-16T08:19:10;22.15;;;15.40;;
20034;SDS011;10178;48.034;9.800;2023-05-16T08:21:35;18.83;;;14.70;;
20034;SDS011;10178;48.034;9.800;2023-05-16T08:24:02;19.13;;;16.15;;
20034;SDS011;10178;48.034;9.800;2023-05-16T08:26:29;21.58;;;16.13;;
20034;SDS011;10178;48.034;9.800;2023-05-16T08:28:56;19.05;;;15.63;;
20034;SDS011;10178;48.034;9.800;2023-05-16T08:31:21;19.63;;;15.98;;
20034;SDS011;10178;48.034;9.800;2023-05-16T08:33:47;22.45;;;17.23;;
20034;SDS011;10178;48.034;9.800;2023-05-16T08:36:13;21.70;;;17.45;;
20034;SDS011;10178;48.034;9.800;2023-05-16T08:38:39;18.52;;;15.25;;
20034;SDS011;10178;48.034;9.800;2023-05-16T08:41:05;22.65;;;17.95;;
20034;SDS011;10178;48.034;9.800;2023-05-16T08:43:31;19.50;;;15.30;;
20034;SDS011;10178;48.034;9.800;2023-05-16T08:45:59;21.92;;;16.77;;
20034;SDS011;10178;48.034;9.800;2023-05-16T08:48:24;21.85;;;15.70;;
20034;SDS011;10178;48.034;9.800;2023-05-16T08:50:52;18.67;;;14.82;;
20034;SDS011;10178;48.034;9.800;2023-05-16T08:53:21;19.48;;;14.73;;
20034;SDS011;10178;48.034;9.800;2023-05-16T08:55:55;29.15;;;17.85;;
20034;SDS011;10178;48.034;9.800;2023-05-16T08:58:21;25.10;;;19.83;;
20034;SDS011;10178;48.034;9.800;2023-05-16T09:00:47;24.33;;;19.08;;
20034;SDS011;10178;48.034;9.800;2023-05-16T09:03:13;22.73;;;17.67;;
20034;SDS011;10178;48.034;9.800;2023-05-16T09:05:38;24.85;;;17.42;;
20034;SDS011;10178;48.034;9.800;2023-05-16T09:08:05;21.88;;;17.75;;
20034;SDS011;10178;48.034;9.800;2023-05-16T09:10:31;19.65;;;16.77;;
20034;SDS011;10178;48.034;9.800;2023-05-16T09:12:56;22.60;;;17.10;;
20034;SDS011;10178;48.034;9.800;2023-05-16T09:15:22;20.27;;;17.17;;
20034;SDS011;10178;48.034;9.800;2023-05-16T09:17:47;22.38;;;17.95;;
20034;SDS011;10178;48.034;9.800;2023-05-16T09:20:17;20.80;;;17.38;;
20034;SDS011;10178;48.034;9.800;2023-05-16T09:22:51;20.48;;;16.70;;
20034;SDS011;10178;48.034;9.800;2023-05-16T09:25:21;22.42;;;17.45;;
20034;SDS011;10178;48.034;9.800;2023-05-16T09:27:51;21.20;;;16.88;;
20034;SDS011;10178;48.034;9.800;2023-05-16T09:30:20;25.20;;;17.90;;
20034;SDS011;10178;48.034;9.800;2023-05-16T09:32:50;21.05;;;16.77;;
20034;SDS011;10178;48.034;9.800;2023-05-16T09:35:18;23.00;;;18.05;;
20034;SDS011;10178;48.034;9.800;2023-05-16T09:37:45;22.10;;;17.83;;
20034;SDS011;10178;48.034;9.800;2023-05-16T09:40:12;22.77;;;18.38;;
20034;SDS011;10178;48.034;9.800;2023-05-16T09:42:38;24.15;;;17.60;;
20034;SDS011;10178;48.034;9.800;2023-05-16T09:45:03;21.00;;;16.63;;
20034;SDS011;10178;48.034;9.800;2023-05-16T09:47:29;21.55;;;17.40;;
20034;SDS011;10178;48.034;9.800;2023-05-16T09:49:55;21.20;;;17.25;;
20034;SDS011;10178;48.034;9.800;2023-05-16T09:52:21;19.90;;;17.30;;
20034;SDS011;10178;48.034;9.800;2023-05-16T09:54:50;19.95;;;16.92;;
20034;SDS011;10178;48.034;9.800;2023-05-16T09:57:22;23.08;;;16.92;;
20034;SDS011;10178;48.034;9.800;2023-05-16T09:59:48;25.23;;;17.48;;
20034;SDS011;10178;48.034;9.800;2023-05-16T10:02:14;21.83;;;17.95;;
20034;SDS011;10178;48.034;9.800;2023-05-16T10:04:40;24.45;;;18.77;;
20034;SDS011;10178;48.034;9.800;2023-05-16T10:07:06;23.08;;;19.08;;
20034;SDS011;10178;48.034;9.800;2023-05-16T10:09:34;23.73;;;18.50;;
20034;SDS011;10178;48.034;9.800;2023-05-16T10:12:01;26.10;;;19.38;;
20034;SDS011;10178;48.034;9.800;2023-05-16T10:14:28;28.08;;;19.83;;
20034;SDS011;10178;48.034;9.800;2023-05-16T10:16:57;23.98;;;19.38;;
20034;SDS011;10178;48.034;9.800;2023-05-16T10:19:22;31.23;;;21.35;;
20034;SDS011;10178;48.034;9.800;2023-05-16T10:21:53;27.13;;;20.58;;
20034;SDS011;10178;48.034;9.800;2023-05-16T10:24:25;27.58;;;20.20;;
20034;SDS011;10178;48.034;9.800;2023-05-16T10:26:58;25.42;;;19.83;;
20034;SDS011;10178;48.034;9.800;2023-05-16T10:29:27;26.30;;;21.08;;
20034;SDS011;10178;48.034;9.800;2023-05-16T10:31:53;26.45;;;19.85;;
20034;SDS011;10178;48.034;9.800;2023-05-16T10:34:19;26.02;;;20.80;;
20034;SDS011;10178;48.034;9.800;2023-05-16T10:36:45;25.77;;;19.83;;
20034;SDS011;10178;48.034;9.800;2023-05-16T10:39:12;24.58;;;19.50;;
20034;SDS011;10178;48.034;9.800;2023-05-16T10:41:39;24.35;;;20.25;;
20034;SDS011;10178;48.034;9.800;2023-05-16T10:44:08;30.08;;;22.80;;
20034;SDS011;10178;48.034;9.800;2023-05-16T10:46:39;26.48;;;19.73;;
20034;SDS011;10178;48.034;9.800;2023-05-16T10:49:23;25.20;;;19.75;;
20034;SDS011;10178;48.034;9.800;2023-05-16T10:57:09;25.15;;;21.08;;
20034;SDS011;10178;48.034;9.800;2023-05-16T10:59:46;24.40;;;20.80;;
20034;SDS011;10178;48.034;9.800;2023-05-16T11:02:26;25.95;;;21.25;;
20034;SDS011;10178;48.034;9.800;2023-05-16T11:04:57;28.30;;;21.48;;
20034;SDS011;10178;48.034;9.800;2023-05-16T11:07:24;27.42;;;22.00;;
20034;SDS011;10178;48.034;9.800;2023-05-16T11:10:07;31.02;;;21.92;;
20034;SDS011;10178;48.034;9.800;2023-05-16T11:15:31;29.08;;;22.35;;
20034;SDS011;10178;48.034;9.800;2023-05-16T11:18:30;29.30;;;22.05;;
20034;SDS011;10178;48.034;9.800;2023-05-16T11:20:48;26.60;;;21.13;;
20034;SDS011;10178;48.034;9.800;2023-05-16T11:25:44;26.42;;;19.58;;
20034;SDS011;10178;48.034;9.800;2023-05-16T11:28:13;27.80;;;20.58;;
20034;SDS011;10178;48.034;9.800;2023-05-16T11:30:42;29.95;;;20.85;;
20034;SDS011;10178;48.034;9.800;2023-05-16T11:33:13;26.85;;;20.55;;
20034;SDS011;10178;48.034;9.800;2023-05-16T11:35:40;26.40;;;18.98;;
20034;SDS011;10178;48.034;9.800;2023-05-16T11:38:10;26.63;;;19.65;;
20034;SDS011;10178;48.034;9.800;2023-05-16T11:40:40;24.13;;;18.90;;
20034;SDS011;10178;48.034;9.800;2023-05-16T11:43:06;24.02;;;18.55;;
20034;SDS011;10178;48.034;9.800;2023-05-16T11:45:32;23.45;;;17.83;;
20034;SDS011;10178;48.034;9.800;2023-05-16T11:48:00;23.67;;;18.27;;
20034;SDS011;10178;48.034;9.800;2023-05-16T11:50:30;26.08;;;18.67;;
20034;SDS011;10178;48.034;9.800;2023-05-16T11:52:59;25.77;;;19.15;;
20034;SDS011;10178;48.034;9.800;2023-05-16T11:55:26;21.48;;;17.05;;
20034;SDS011;10178;48.034;9.800;2023-05-16T11:57:54;25.02;;;17.15;;
20034;SDS011;10178;48.034;9.800;2023-05-16T12:00:21;22.75;;;17.52;;
20034;SDS011;10178;48.034;9.800;2023-05-16T12:02:52;21.02;;;16.65;;
20034;SDS011;10178;48.034;9.800;2023-05-16T12:05:19;24.70;;;16.45;;
20034;SDS011;10178;48.034;9.800;2023-05-16T12:07:49;21.55;;;16.65;;
20034;SDS011;10178;48.034;9.800;2023-05-16T12:10:15;19.85;;;16.27;;
20034;SDS011;10178;48.034;9.800;2023-05-16T12:12:42;22.45;;;16.17;;
20034;SDS011;10178;48.034;9.800;2023-05-16T12:15:10;19.95;;;15.23;;
20034;SDS011;10178;48.034;9.800;2023-05-16T12:17:37;20.05;;;14.90;;
20034;SDS011;10178;48.034;9.800;2023-05-16T12:20:04;18.83;;;15.00;;
20034;SDS011;10178;48.034;9.800;2023-05-16T12:22:30;20.20;;;15.32;;
20034;SDS011;10178;48.034;9.800;2023-05-16T12:27:52;21.95;;;15.13;;
20034;SDS011;10178;48.034;9.800;2023-05-16T12:30:28;14.77;;;13.10;;
20034;SDS011;10178;48.034;9.800;2023-05-16T12:35:29;15.63;;;13.60;;
20034;SDS011;10178;48.034;9.800;2023-05-16T12:37:56;15.35;;;13.18;;
20034;SDS011;10178;48.034;9.800;2023-05-16T12:40:21;13.88;;;12.38;;
20034;SDS011;10178;48.034;9.800;2023-05-16T12:42:48;17.55;;;13.27;;
20034;SDS011;10178;48.034;9.800;2023-05-16T12:45:16;15.63;;;12.40;;
20034;SDS011;10178;48.034;9.800;2023-05-16T12:47:42;16.75;;;12.93;;
20034;SDS011;10178;48.034;9.800;2023-05-16T12:50:11;13.43;;;11.82;;
20034;SDS011;10178;48.034;9.800;2023-05-16T12:55:16;13.98;;;11.75;;
20034;SDS011;10178;48.034;9.800;2023-05-16T12:57:43;13.00;;;11.50;;
20034;SDS011;10178;48.034;9.800;2023-05-16T13:00:11;12.15;;;10.85;;
20034;SDS011;10178;48.034;9.800;2023-05-16T13:02:39;13.02;;;11.23;;
20034;SDS011;10178;48.034;9.800;2023-05-16T13:05:05;15.10;;;11.70;;
20034;SDS011;10178;48.034;9.800;2023-05-16T13:07:34;15.07;;;12.25;;
20034;SDS011;10178;48.034;9.800;2023-05-16T13:10:00;15.07;;;11.45;;
20034;SDS011;10178;48.034;9.800;2023-05-16T13:12:26;12.48;;;11.10;;
20034;SDS011;10178;48.034;9.800;2023-05-16T13:14:52;13.95;;;10.85;;
20034;SDS011;10178;48.034;9.800;2023-05-16T13:17:18;16.58;;;11.57;;
20034;SDS011;10178;48.034;9.800;2023-05-16T13:19:44;14.90;;;11.43;;
20034;SDS011;10178;48.034;9.800;2023-05-16T13:22:10;12.35;;;10.63;;
20034;SDS011;10178;48.034;9.800;2023-05-16T13:24:35;12.02;;;10.65;;
20034;SDS011;10178;48.034;9.800;2023-05-16T13:27:01;14.50;;;11.43;;
20034;SDS011;10178;48.034;9.800;2023-05-16T13:29:27;14.77;;;11.38;;
20034;SDS011;10178;48.034;9.800;2023-05-16T13:31:52;14.30;;;11.40;;
20034;SDS011;10178;48.034;9.800;2023-05-16T13:34:18;16.92;;;12.32;;
20034;SDS011;10178;48.034;9.800;2023-05-16T13:36:43;16.17;;;10.82;;
20034;SDS011;10178;48.034;9.800;2023-05-16T13:39:11;14.18;;;11.77;;
20034;SDS011;10178;48.034;9.800;2023-05-16T13:41:37;14.43;;;11.60;;
20034;SDS011;10178;48.034;9.800;2023-05-16T13:44:04;14.88;;;11.32;;
20034;SDS011;10178;48.034;9.800;2023-05-16T13:46:30;14.52;;;11.35;;
20034;SDS011;10178;48.034;9.800;2023-05-16T13:48:56;14.35;;;11.07;;
20034;SDS011;10178;48.034;9.800;2023-05-16T13:51:21;13.40;;;10.93;;
20034;SDS011;10178;48.034;9.800;2023-05-16T13:53:47;12.15;;;10.85;;
20034;SDS011;10178;48.034;9.800;2023-05-16T13:56:13;12.48;;;11.18;;
20034;SDS011;10178;48.034;9.800;2023-05-16T13:58:38;13.50;;;11.52;;
20034;SDS011;10178;48.034;9.800;2023-05-16T14:01:04;13.63;;;12.05;;
20034;SDS011;10178;48.034;9.800;2023-05-16T14:03:30;11.98;;;10.75;;
20034;SDS011;10178;48.034;9.800;2023-05-16T14:05:56;14.07;;;11.20;;
20034;SDS011;10178;48.034;9.800;2023-05-16T14:08:21;14.10;;;11.82;;
20034;SDS011;10178;48.034;9.800;2023-05-16T14:10:47;13.25;;;10.65;;
20034;SDS011;10178;48.034;9.800;2023-05-16T14:13:12;13.13;;;10.90;;
20034;SDS011;10178;48.034;9.800;2023-05-16T14:15:38;13.55;;;10.50;;
20034;SDS011;10178;48.034;9.800;2023-05-16T14:18:04;14.98;;;13.38;;
20034;SDS011;10178;48.034;9.800;2023-05-16T14:20:30;14.65;;;12.68;;
20034;SDS011;10178;48.034;9.800;2023-05-16T14:22:55;13.13;;;11.73;;
20034;SDS011;10178;48.034;9.800;2023-05-16T14:25:21;13.48;;;12.07;;
20034;SDS011;10178;48.034;9.800;2023-05-16T14:27:47;12.82;;;11.30;;
20034;SDS011;10178;48.034;9.800;2023-05-16T14:30:15;13.07;;;11.32;;
20034;SDS011;10178;48.034;9.800;2023-05-16T14:32:40;12.63;;;11.18;;
20034;SDS011;10178;48.034;9.800;2023-05-16T14:35:06;14.07;;;11.25;;
20034;SDS011;10178;48.034;9.800;2023-05-16T14:37:33;11.60;;;10.45;;
20034;SDS011;10178;48.034;9.800;2023-05-16T14:39:59;12.27;;;10.95;;
20034;SDS011;10178;48.034;9.800;2023-05-16T14:42:25;14.10;;;10.05;;
20034;SDS011;10178;48.034;9.800;2023-05-16T14:44:50;12.30;;;10.57;;
20034;SDS011;10178;48.034;9.800;2023-05-16T14:47:16;13.00;;;11.20;;
20034;SDS011;10178;48.034;9.800;2023-05-16T14:49:42;13.80;;;10.35;;
20034;SDS011;10178;48.034;9.800;2023-05-16T14:52:07;10.82;;;9.57;;
20034;SDS011;10178;48.034;9.800;2023-05-16T14:54:33;12.98;;;9.70;;
20034;SDS011;10178;48.034;9.800;2023-05-16T14:56:59;12.73;;;9.73;;
20034;SDS011;10178;48.034;9.800;2023-05-16T14:59:25;13.00;;;9.77;;
20034;SDS011;10178;48.034;9.800;2023-05-16T15:01:51;12.82;;;10.70;;
20034;SDS011;10178;48.034;9.800;2023-05-16T15:04:16;11.85;;;10.20;;
20034;SDS011;10178;48.034;9.800;2023-05-16T15:06:42;11.40;;;10.20;;
20034;SDS011;10178;48.034;9.800;2023-05-16T15:09:08;42.15;;;23.98;;
20034;SDS011;10178;48.034;9.800;2023-05-16T15:11:34;237.60;;;126.28;;